Lake George, NY (12845)

11:48 AM EDT on August 25, 2016 (GMT -0400)
Pickle Hill | | Change Station

Elev 384 ft 43.41 °N, 73.63 °W | Updated 19 seconds ago

Overcast
Overcast
75.2 °F
Feels Like 75 °F
N
0.0
Wind Variable Wind from NE
Gusts 0.0 mph

Today
High -- | Low -- °F
--% Chance of Precip.
Yesterday
High -- | Low -- °F
Precip. -- in
Pressure 30.01 in
Visibility 10.0 miles
Clouds Overcast 6000 ft
Heat Index 75 °F
Dew Point 70 °F
Humidity 83%
Rainfall 0.00 in
Snow Depth Not available.
6:11 AM 7:41 PM
Last Quarter, 44% visible
METAR KGFL 251453Z AUTO 20005KT 10SM OVC060 24/18 A3001 RMK AO2 SLP161 T02390183 56012
Pressure 30.01 in
Visibility 10.0 miles
Clouds Overcast 6000 ft
Heat Index 75 °F
Dew Point 70 °F
Humidity 83%
Rainfall 0.00 in
Snow Depth Not available.
6:11 AM 7:41 PM
Last Quarter, 44% visible
METAR KGFL 251453Z AUTO 20005KT 10SM OVC060 24/18 A3001 RMK AO2 SLP161 T02390183 56012

10-Day Weather Forecast

Almanac

Astronomy

Aug. 25, 2016 Rise Set
Actual Time
Civil Twilight
Nautical Twilight
Astronomical Twilight
Moon
Length of Visible Light
Length of Day
Tomorrow will be .
, % of the Moon is Illuminated

Today's Extremes

State Highs State Lows

Community

WunderPhotos

Upload Photos

1,934,867 photos uploaded!

WunderBlog® & News

Nearby

Air Quality

  Air Quality AQ Index Pollutant
Not available.

Snow Depth

Station Depth Elevation

Earthquake Activity

City Distance Mag. Time & Date
Minimum magnitude displayed is 2.5.

Coastal Water Temperatures

Place Temperature

Stations

Nearby Weather Stations

Station Location Temp. Windchill Dew Point Humidity Wind Precip. Elev Updated Type
                   

Watches & Warnings

There are currently no watches in effect.